• Join FlightAware (Why Join?)
  • Login
  • US Flag 
 
07:34AM EST


 

Airport Tracker/Info


-or-


 

Live Flight TrackerFlight Track Log ✈ N528QS ✈ 26-Dec-2013 ✈ MMUN / CUN - KHPN

Flight Track Log - Related Links

Times and Time Zones

All times are in EST time to prevent confusion due to time zone crossing. See the N528QS flight status page for this flight to view local times or setup timezone preferences in your user account.

Time Position Orientation Groundspeed Altitude Reporting Facility
EST Latitude Longitude Course Direction KTS MPH feet Rate Location/Type
06:39PM 29.7101 -81.9461 26° Northeast  Level Estimated
06:40PM 29.8293 -81.8722 28° Northeast  Level Estimated
06:41PM 29.9485 -81.7980 28° Northeast  Level Estimated
06:42PM 30.0676 -81.7237 28° Northeast  Level Estimated
06:43PM 30.1867 -81.6492 28° Northeast  Level Estimated
06:44PM 30.3057 -81.5746 28° Northeast  Level Estimated
06:45PM 30.4247 -81.4997 28° Northeast  Level Estimated
06:46PM 30.5436 -81.4247 29° Northeast  Level Estimated
06:47PM 30.6625 -81.3495 29° Northeast  Level Estimated
06:48PM 30.7814 -81.2741 29° Northeast  Level Estimated
06:49PM 30.9002 -81.1985 29° Northeast  Level Estimated
06:50PM 31.0190 -81.1228 29° Northeast  Level Estimated
06:51PM 31.1377 -81.0468 29° Northeast  Level Estimated
06:52PM 31.2564 -80.9706 29° Northeast  Level Estimated
06:53PM 31.3750 -80.8943 29° Northeast  Level Estimated
06:54PM 31.4936 -80.8178 29° Northeast  Level Estimated
06:55PM 31.6122 -80.7411 29° Northeast  Level Estimated
06:56PM 31.7307 -80.6641 29° Northeast  Level Estimated
06:57PM 31.8491 -80.5870 29° Northeast  Level Estimated
06:58PM 31.9676 -80.5097 29° Northeast  Level Estimated
06:58PM 23.9414 -86.1836 29° Northeast 709 816 41,000  Level Houston Center
06:59PM 32.0859 -80.4322 29° Northeast  Level Estimated
06:59PM 24.0808 -86.1361 17° North 572 658 41,000  Level Houston Center
07:00PM 32.2042 -80.3544 29° Northeast  Level Estimated
07:00PM 24.2119 -86.0533 30° Northeast 558 642 41,000  Level Houston Center
07:01PM 32.3225 -80.2765 29° Northeast  Level Estimated
07:01PM 24.3375 -85.9667 32° Northeast 543 625 41,000  Level Houston Center
07:02PM 32.4407 -80.1984 29° Northeast  Level Estimated
07:02PM 24.4697 -85.8803 31° Northeast 544 626 41,000  Level Houston Center
07:03PM 32.5589 -80.1201 29° Northeast  Level Estimated
07:03PM 24.5997 -85.7931 31° Northeast 545 627 40,900  Level Houston Center
07:04PM 24.7542 -85.6886 32° Northeast 544 626 41,000  Climbing Houston Center
07:05PM 24.8836 -85.6019 31° Northeast 544 626 40,900  Descending Houston Center
07:06PM 25.0053 -85.5161 33° Northeast 539 620 41,000  Climbing Houston Center
07:07PM 25.1339 -85.4283 32° Northeast 540 621 41,000  Level Houston Center
07:08PM 25.2714 -85.3350 32° Northeast 542 624 41,000  Level Houston Center
07:09PM 25.3933 -85.2564 30° Northeast 542 624 41,000  Level Houston Center
07:10PM 25.5289 -85.1881 24° Northeast 537 618 41,000  Level Houston Center
07:11PM 25.6922 -85.1056 24° Northeast 537 618 41,000  Level Houston Center
07:12PM 25.7708 -85.0681 23° Northeast 523 602 41,000  Level Miami Center
07:13PM 25.9211 -84.9908 25° Northeast 523 602 41,000  Level Miami Center
07:14PM 26.0539 -84.9236 24° Northeast 523 602 41,000  Level Miami Center
07:15PM 26.1872 -84.8517 26° Northeast 528 608 41,000  Level Miami Center
07:16PM 26.3264 -84.7847 23° Northeast 534 615 41,000  Level Miami Center
07:17PM 26.4639 -84.7131 25° Northeast 534 615 41,000  Level Miami Center
07:17PM 26.5158 -84.6864 25° Northeast 538 619 41,000  Level Houston Center
07:18PM 26.6522 -84.6161 25° Northeast 538 619 41,000  Level Houston Center
07:19PM 26.7864 -84.5464 25° Northeast 533 613 41,000  Level Houston Center
07:20PM 26.9217 -84.4778 24° Northeast 533 613 41,000  Level Houston Center
07:22PM 27.1411 -84.3672 24° Northeast 529 609 41,000  Level Miami Center
07:23PM 27.2719 -84.2942 26° Northeast 529 609 41,000  Level Miami Center
07:24PM 27.4047 -84.2256 25° Northeast 534 615 41,000  Level Miami Center
07:25PM 27.5419 -84.1547 25° Northeast 534 615 41,000  Level Miami Center
07:26PM 27.6789 -84.0839 25° Northeast 534 615 41,000  Level Miami Center
07:27PM 27.8097 -84.0125 26° Northeast 534 615 41,000  Level Miami Center
07:28PM 28.0061 -83.9103 25° Northeast 546 628 41,000  Level Jacksonville Center
07:29PM 28.1486 -83.8458 22° Northeast 546 628 41,000  Level Jacksonville Center
07:30PM 28.2825 -83.7858 22° Northeast 532 612 41,000  Level Jacksonville Center
07:31PM 28.4103 -83.6928 33° Northeast 527 606 41,000  Level Jacksonville Center
07:32PM 28.5342 -83.5919 36° Northeast 539 620 41,000  Level Jacksonville Center
07:33PM 28.6597 -83.4936 34° Northeast 544 626 41,000  Level Jacksonville Center
07:34PM 28.7981 -83.3831 35° Northeast 554 638 41,000  Level Jacksonville Center
07:35PM 28.9256 -83.2864 34° Northeast 548 631 41,000  Level Jacksonville Center
07:36PM 29.0511 -83.1872 35° Northeast 548 631 41,000  Level Jacksonville Center
07:37PM 29.1767 -83.0875 35° Northeast 548 631 41,000  Level Jacksonville Center
07:38PM 29.3019 -82.9903 34° Northeast 548 631 41,000  Level Jacksonville Center
07:39PM 29.4272 -82.8878 35° Northeast 548 631 41,000  Level Jacksonville Center
07:40PM 29.5567 -82.7922 33° Northeast 548 631 41,000  Level Jacksonville Center
07:41PM 29.6797 -82.6942 35° Northeast 548 631 41,000  Level Jacksonville Center
07:42PM 29.8069 -82.5886 36° Northeast 553 636 41,000  Level Jacksonville Center
07:43PM 29.9361 -82.4875 34° Northeast 558 642 41,000  Level Jacksonville Center
07:44PM 30.0608 -82.3933 33° Northeast 548 631 41,000  Level Jacksonville Center
07:45PM 30.1836 -82.2894 36° Northeast 548 631 41,000  Level Jacksonville Center
07:46PM 30.3083 -82.1853 36° Northeast 542 624 41,000  Level Jacksonville Center
07:47PM 30.4331 -82.0878 34° Northeast 542 624 41,000  Level Jacksonville Center
07:48PM 30.5597 -81.9856 35° Northeast 547 629 41,000  Level Jacksonville Center
07:49PM 30.6739 -81.9000 33° Northeast 547 629 41,000  Level Jacksonville Center
07:50PM 30.7983 -81.7969 35° Northeast 547 629 41,000  Level Jacksonville Center
07:51PM 30.9228 -81.6964 35° Northeast 547 629 41,000  Level Jacksonville Center
07:52PM 31.0469 -81.5928 36° Northeast 547 629 41,000  Level Jacksonville Center
07:53PM 31.1753 -81.4917 34° Northeast 547 629 41,000  Level Jacksonville Center
07:54PM 31.2975 -81.3853 37° Northeast 547 629 41,000  Level Jacksonville Center
07:55PM 31.4194 -81.2858 35° Northeast 537 618 41,000  Level Jacksonville Center
07:56PM 31.5578 -81.1714 35° Northeast 542 624 41,000  Level Jacksonville Center
07:57PM 31.6669 -81.0764 37° Northeast 542 624 41,000  Level Jacksonville Center
07:58PM 31.8033 -80.9639 35° Northeast 542 624 41,000  Level Jacksonville Center
07:59PM 31.9247 -80.8608 36° Northeast 537 618 41,000  Level Jacksonville Center
08:00PM 32.0361 -80.7728 34° Northeast 543 625 41,000 60 Level Jacksonville Center
08:01PM 32.1739 -80.6542 36° Northeast 543 625 41,200 600 Climbing Jacksonville Center
08:02PM 32.2931 -80.5531 36° Northeast 535 616 42,200 900 Climbing Jacksonville Center
08:03PM 32.4144 -80.4464 37° Northeast 529 609 43,000 360 Climbing Jacksonville Center
08:04PM 32.5356 -80.3447 35° Northeast 534 615 43,000  Level Jacksonville Center
08:05PM 32.6544 -80.2425 36° Northeast 534 615 43,000  Level Jacksonville Center
08:06PM 32.7775 -80.1378 36° Northeast 534 615 43,000  Level Jacksonville Center
08:07PM 32.8961 -80.0303 37° Northeast 539 620 43,000  Level Jacksonville Center
08:08PM 33.0167 -79.9175 38° Northeast 545 627 43,000  Level Jacksonville Center
08:09PM 33.1369 -79.8017 39° Northeast 551 634 43,000  Level Jacksonville Center
08:10PM 33.2533 -79.6908 39° Northeast 551 634 43,000  Level Jacksonville Center
08:11PM 33.3714 -79.5747 39° Northeast 551 634 43,000  Level Jacksonville Center
08:12PM 33.4914 -79.4583 39° Northeast 546 628 43,000  Level Jacksonville Center
08:13PM 33.6092 -79.3414 40° Northeast 551 634 43,000  Level Jacksonville Center
08:14PM 33.7025 -79.2503 39° Northeast 551 634 43,000  Level Jacksonville Center
08:15PM 33.8261 -79.1278 39° Northeast 537 618 43,000  Level Jacksonville Center
08:18PM 34.1003 -78.8572 39° Northeast 527 606 43,000  Level Washington Center
08:19PM 34.2031 -78.7558 39° Northeast 527 606 43,000  Level Washington Center
08:20PM 34.3228 -78.6397 39° Northeast 534 615 43,000  Level Washington Center
08:21PM 34.4364 -78.5231 40° Northeast 539 620 43,000  Level Washington Center
08:22PM 34.5433 -78.4108 41° Northeast 539 620 43,000  Level Washington Center
08:23PM 34.6714 -78.2839 39° Northeast 539 620 43,000  Level Washington Center
08:24PM 34.7867 -78.1664 40° Northeast 545 627 43,000  Level Washington Center
08:25PM 34.9125 -78.0361 40° Northeast 534 615 43,000  Level Washington Center
08:26PM 35.0356 -77.9358 34° Northeast 534 615 43,000  Level Washington Center
08:27PM 35.1606 -77.8406 32° Northeast 528 608 43,000  Level Washington Center
08:28PM 35.2833 -77.7422 33° Northeast 523 602 43,000  Level Washington Center
08:29PM 35.4061 -77.6461 33° Northeast 523 602 43,000  Level Washington Center
08:30PM 35.5286 -77.5522 32° Northeast 523 602 43,000  Level Washington Center
08:31PM 35.6514 -77.4556 33° Northeast 528 608 43,000  Level Washington Center
08:32PM 35.7736 -77.3586 33° Northeast 528 608 43,000  Level Washington Center
08:33PM 35.8942 -77.2611 33° Northeast 528 608 43,000  Level Washington Center
08:34PM 36.0164 -77.1636 33° Northeast 528 608 43,000  Level Washington Center
08:35PM 36.1261 -77.0733 34° Northeast 528 608 43,000  Level Washington Center
08:36PM 36.2483 -76.9750 33° Northeast 528 608 43,000  Level Washington Center
08:37PM 36.3725 -76.8767 33° Northeast 528 608 43,000  Level Washington Center
08:38PM 36.4925 -76.7753 34° Northeast 528 608 43,000  Level Washington Center
08:39PM 36.6164 -76.6761 33° Northeast 528 608 43,000  Level Washington Center
08:40PM 36.7383 -76.5742 34° Northeast 528 608 43,000  Level Washington Center
08:42PM 36.9817 -76.3719 34° Northeast 528 608 43,000  Level Washington Center
08:43PM 37.1158 -76.2586 34° Northeast 528 608 43,000  Level Washington Center
08:44PM 37.2353 -76.1581 34° Northeast 528 608 43,000  Level Washington Center
08:45PM 37.3631 -76.0725 28° Northeast 523 602 43,000  Level Washington Center
08:46PM 37.4883 -75.9844 29° Northeast 517 595 43,000  Level Washington Center
08:47PM 37.6158 -75.8933 30° Northeast 512 589 43,000  Level Washington Center
08:48PM 37.7369 -75.8044 30° Northeast 506 582 43,000  Level Washington Center
08:49PM 37.8603 -75.7153 30° Northeast 506 582 43,000  Level Washington Center
08:50PM 37.9856 -75.6261 29° Northeast 506 582 43,000  Level Washington Center
08:51PM 38.1064 -75.5311 32° Northeast 506 582 43,000  Level Washington Center
08:52PM 38.2336 -75.4436 28° Northeast 506 582 43,000 -300 Level Washington Center
08:53PM 38.3439 -75.3667 29° Northeast 501 577 42,500 -960 Descending Washington Center
08:54PM 38.4689 -75.2761 30° Northeast 501 577 41,200 -780 Descending Washington Center
08:55PM 38.5894 -75.1825 31° Northeast 507 583 41,000 -600 Descending Washington Center
08:56PM 38.7142 -75.0861 31° Northeast 507 583 40,000 -1,740 Descending Washington Center
08:57PM 38.8408 -74.9919 30° Northeast 512 589 37,600 -2,400 Descending Washington Center
08:58PM 38.9656 -74.9003 30° Northeast 512 589 35,200 -2,340 Descending Washington Center
08:59PM 39.0836 -74.8081 31° Northeast 507 583 33,000 -2,220 Descending Washington Center
09:00PM 39.1997 -74.6944 37° Northeast 513 590 30,800 -2,220 Descending Washington Center
09:02PM 39.4264 -74.4611 38° Northeast 519 597 26,500 -2,220 Descending New York Center
09:03PM 39.5364 -74.3428 40° Northeast 519 597 24,300 -1,440 Descending New York Center
09:04PM 39.6439 -74.2325 38° Northeast 507 583 23,700 -960 Descending New York Center
09:05PM 39.7514 -74.1136 40° Northeast 501 577 22,400 -1,320 Descending New York Center
09:06PM 39.8567 -74.0050 38° Northeast 490 564 21,100 -1,380 Descending New York Center
09:07PM 40.0364 -73.8122 39° Northeast 477 549 18,800 -1,260 Descending Boston Center
09:08PM 40.1375 -73.7033 39° Northeast 474 545 17,800 -900 Descending Boston Center
09:09PM 40.2425 -73.5922 39° Northeast 463 533 17,000 -420 Descending Boston Center
09:10PM 40.3406 -73.4850 40° Northeast 462 532 17,000  Level Boston Center
09:11PM 40.4544 -73.4253 22° Northeast 441 507 17,000 -480 Level Boston Center
09:12PM 40.5717 -73.3864 14° North 434 499 16,100 -960 Descending Boston Center
09:13PM 40.6667 -73.3500 16° North 404 465 15,300 -600 Descending New York TRACON
09:14PM 40.7667 -73.3167 14° North 333 383 15,000 -900 Descending New York TRACON
09:15PM 40.8333 -73.2333 43° Northeast 367 422 13,500 -1,620 Descending New York TRACON
09:16PM 40.8833 -73.1167 60° Northeast 396 456 11,800 -1,560 Descending New York TRACON
09:17PM 40.9500 -73.0333 43° Northeast 347 399 10,400 -1,800 Descending New York TRACON
09:18PM 41.0000 -73.0667 333° Northwest 256 295 8,300 -2,100 Descending New York TRACON
09:19PM 41.0333 -73.1500 298° West 249 287 6,300 -1,620 Descending New York TRACON
09:21PM 41.0833 -73.3167 292° West 244 281 3,600 -1,200 Descending New York TRACON
09:22PM 41.0500 -73.3833 236° Southwest 219 252 2,800 -900 Descending New York TRACON
09:23PM 41.0167 -73.4333 229° Southwest 218 251 2,000 -420 Descending New York TRACON
09:24PM 40.9833 -73.5000 236° Southwest 185 213 2,000  Level New York TRACON
09:25PM 40.9667 -73.5500 246° West 153 176 2,000  Level New York TRACON
09:26PM 40.9667 -73.6000 270° West 135 155 2,000  Level New York TRACON
09:27PM 40.9833 -73.6500 294° West 130 150 2,000 -480 Level New York TRACON
09:29PM 41.0500 -73.7000 331° Northwest 109 125 700 -660 Descending New York TRACON